sensor_id;sensor_type;location;lat;lon;timestamp;pressure;altitude;pressure_sealevel;temperature;humidity
80248;BME280;69560;52.206;21.018;2023-06-10T00:01:03;100156.67;;;23.30;44.15
80248;BME280;69560;52.206;21.018;2023-06-10T00:03:52;100152.86;;;23.28;44.19
80248;BME280;69560;52.206;21.018;2023-06-10T00:06:19;100149.13;;;23.26;44.33
80248;BME280;69560;52.206;21.018;2023-06-10T00:08:47;100147.39;;;23.25;44.25
80248;BME280;69560;52.206;21.018;2023-06-10T00:11:14;100147.81;;;23.24;44.26
80248;BME280;69560;52.206;21.018;2023-06-10T00:13:41;100149.20;;;23.24;44.36
80248;BME280;69560;52.206;21.018;2023-06-10T00:16:09;100146.30;;;23.23;44.31
80248;BME280;69560;52.206;21.018;2023-06-10T00:18:36;100143.38;;;23.24;44.34
80248;BME280;69560;52.206;21.018;2023-06-10T00:21:05;100139.36;;;23.23;44.16
80248;BME280;69560;52.206;21.018;2023-06-10T00:23:36;100138.49;;;23.22;44.00
80248;BME280;69560;52.206;21.018;2023-06-10T00:26:04;100138.66;;;23.22;43.87
80248;BME280;69560;52.206;21.018;2023-06-10T00:28:33;100140.44;;;23.22;43.67
80248;BME280;69560;52.206;21.018;2023-06-10T00:30:59;100141.13;;;23.21;43.53
80248;BME280;69560;52.206;21.018;2023-06-10T00:33:26;100141.73;;;23.20;43.27
80248;BME280;69560;52.206;21.018;2023-06-10T00:35:56;100139.15;;;23.19;43.15
80248;BME280;69560;52.206;21.018;2023-06-10T00:38:22;100140.16;;;23.19;43.08
80248;BME280;69560;52.206;21.018;2023-06-10T00:40:50;100141.16;;;23.18;42.76
80248;BME280;69560;52.206;21.018;2023-06-10T00:43:16;100139.19;;;23.16;42.63
80248;BME280;69560;52.206;21.018;2023-06-10T00:45:43;100137.80;;;23.15;42.51
80248;BME280;69560;52.206;21.018;2023-06-10T00:48:10;100140.28;;;23.13;42.31
80248;BME280;69560;52.206;21.018;2023-06-10T00:50:37;100139.02;;;23.09;42.04
80248;BME280;69560;52.206;21.018;2023-06-10T00:53:08;100135.52;;;23.05;41.78
80248;BME280;69560;52.206;21.018;2023-06-10T00:55:37;100139.15;;;23.01;41.42
80248;BME280;69560;52.206;21.018;2023-06-10T00:58:05;100143.64;;;22.97;41.15
80248;BME280;69560;52.206;21.018;2023-06-10T01:00:31;100148.52;;;22.94;40.83
80248;BME280;69560;52.206;21.018;2023-06-10T01:03:02;100147.57;;;22.91;40.64
80248;BME280;69560;52.206;21.018;2023-06-10T01:05:35;100151.70;;;22.87;40.46
80248;BME280;69560;52.206;21.018;2023-06-10T01:11:00;100153.80;;;22.80;40.26
80248;BME280;69560;52.206;21.018;2023-06-10T01:13:28;100150.61;;;22.79;40.11
80248;BME280;69560;52.206;21.018;2023-06-10T01:15:56;100150.70;;;22.79;39.90
80248;BME280;69560;52.206;21.018;2023-06-10T01:18:24;100149.95;;;22.77;39.86
80248;BME280;69560;52.206;21.018;2023-06-10T01:20:57;100150.71;;;22.76;39.62
80248;BME280;69560;52.206;21.018;2023-06-10T01:23:24;100152.38;;;22.72;39.31
80248;BME280;69560;52.206;21.018;2023-06-10T01:26:02;100150.61;;;22.69;39.13
80248;BME280;69560;52.206;21.018;2023-06-10T01:28:44;100153.80;;;22.65;38.87
80248;BME280;69560;52.206;21.018;2023-06-10T01:31:52;100157.30;;;22.62;38.87
80248;BME280;69560;52.206;21.018;2023-06-10T01:34:23;100155.48;;;22.58;38.61
80248;BME280;69560;52.206;21.018;2023-06-10T01:36:57;100160.38;;;22.55;38.61
80248;BME280;69560;52.206;21.018;2023-06-10T01:39:25;100168.42;;;22.54;38.35
80248;BME280;69560;52.206;21.018;2023-06-10T01:41:53;100167.49;;;22.50;38.27
80248;BME280;69560;52.206;21.018;2023-06-10T01:44:22;100164.25;;;22.45;38.12
80248;BME280;69560;52.206;21.018;2023-06-10T01:46:49;100169.90;;;22.42;38.04
80248;BME280;69560;52.206;21.018;2023-06-10T01:49:17;100168.44;;;22.40;38.10
80248;BME280;69560;52.206;21.018;2023-06-10T01:51:44;100171.02;;;22.37;38.01
80248;BME280;69560;52.206;21.018;2023-06-10T01:54:11;100169.34;;;22.34;37.81
80248;BME280;69560;52.206;21.018;2023-06-10T01:56:38;100165.90;;;22.30;37.81
80248;BME280;69560;52.206;21.018;2023-06-10T01:59:10;100173.73;;;22.27;37.81
80248;BME280;69560;52.206;21.018;2023-06-10T02:01:37;100171.48;;;22.25;37.77
80248;BME280;69560;52.206;21.018;2023-06-10T02:04:04;100176.45;;;22.23;37.83
80248;BME280;69560;52.206;21.018;2023-06-10T02:06:31;100176.23;;;22.22;37.89
80248;BME280;69560;52.206;21.018;2023-06-10T02:09:03;100172.84;;;22.20;37.75
80248;BME280;69560;52.206;21.018;2023-06-10T02:11:30;100174.98;;;22.18;37.74
80248;BME280;69560;52.206;21.018;2023-06-10T02:13:59;100171.53;;;22.14;37.71
80248;BME280;69560;52.206;21.018;2023-06-10T02:16:28;100177.70;;;22.11;37.62
80248;BME280;69560;52.206;21.018;2023-06-10T02:18:55;100179.02;;;22.07;37.57
80248;BME280;69560;52.206;21.018;2023-06-10T02:21:22;100179.46;;;22.06;37.76
80248;BME280;69560;52.206;21.018;2023-06-10T02:23:49;100178.50;;;22.02;37.76
80248;BME280;69560;52.206;21.018;2023-06-10T02:26:16;100182.40;;;21.99;37.52
80248;BME280;69560;52.206;21.018;2023-06-10T02:28:43;100184.89;;;21.96;37.67
80248;BME280;69560;52.206;21.018;2023-06-10T02:31:13;100186.93;;;21.92;37.59
80248;BME280;69560;52.206;21.018;2023-06-10T02:33:52;100188.19;;;21.88;37.68
80248;BME280;69560;52.206;21.018;2023-06-10T02:36:21;100194.72;;;21.85;37.65
80248;BME280;69560;52.206;21.018;2023-06-10T02:38:53;100197.77;;;21.82;37.78
80248;BME280;69560;52.206;21.018;2023-06-10T02:41:22;100199.61;;;21.80;37.77
80248;BME280;69560;52.206;21.018;2023-06-10T02:43:51;100201.31;;;21.76;37.74
80248;BME280;69560;52.206;21.018;2023-06-10T02:46:18;100202.99;;;21.70;37.87
80248;BME280;69560;52.206;21.018;2023-06-10T02:48:48;100207.89;;;21.69;37.84
80248;BME280;69560;52.206;21.018;2023-06-10T02:51:18;100209.39;;;21.67;37.88
80248;BME280;69560;52.206;21.018;2023-06-10T02:53:47;100210.21;;;21.63;37.96
80248;BME280;69560;52.206;21.018;2023-06-10T02:56:17;100209.59;;;21.62;38.08
80248;BME280;69560;52.206;21.018;2023-06-10T02:58:45;100211.88;;;21.61;38.02
80248;BME280;69560;52.206;21.018;2023-06-10T03:01:14;100216.55;;;21.58;38.06
80248;BME280;69560;52.206;21.018;2023-06-10T03:03:44;100213.21;;;21.56;38.16
80248;BME280;69560;52.206;21.018;2023-06-10T03:06:13;100215.92;;;21.54;38.31
80248;BME280;69560;52.206;21.018;2023-06-10T03:08:43;100212.86;;;21.54;38.33
80248;BME280;69560;52.206;21.018;2023-06-10T03:11:10;100215.11;;;21.51;38.28
80248;BME280;69560;52.206;21.018;2023-06-10T03:13:41;100213.36;;;21.50;38.37
80248;BME280;69560;52.206;21.018;2023-06-10T03:16:12;100219.84;;;21.50;38.52
80248;BME280;69560;52.206;21.018;2023-06-10T03:18:43;100221.88;;;21.48;38.42
80248;BME280;69560;52.206;21.018;2023-06-10T03:21:10;100224.89;;;21.48;38.45
80248;BME280;69560;52.206;21.018;2023-06-10T03:23:37;100224.23;;;21.48;38.61
80248;BME280;69560;52.206;21.018;2023-06-10T03:26:04;100223.90;;;21.48;38.69
80248;BME280;69560;52.206;21.018;2023-06-10T03:28:39;100226.64;;;21.49;38.65
80248;BME280;69560;52.206;21.018;2023-06-10T03:31:11;100230.65;;;21.49;38.71
80248;BME280;69560;52.206;21.018;2023-06-10T03:33:41;100228.47;;;21.50;38.70
80248;BME280;69560;52.206;21.018;2023-06-10T03:36:09;100231.85;;;21.50;38.91
80248;BME280;69560;52.206;21.018;2023-06-10T03:38:39;100232.29;;;21.48;38.78
80248;BME280;69560;52.206;21.018;2023-06-10T03:41:06;100232.52;;;21.45;38.74
80248;BME280;69560;52.206;21.018;2023-06-10T03:43:37;100238.29;;;21.44;38.85
80248;BME280;69560;52.206;21.018;2023-06-10T03:46:05;100241.23;;;21.42;38.78
80248;BME280;69560;52.206;21.018;2023-06-10T03:48:32;100244.17;;;21.40;38.84
80248;BME280;69560;52.206;21.018;2023-06-10T03:50:59;100248.21;;;21.40;38.99
80248;BME280;69560;52.206;21.018;2023-06-10T03:53:26;100248.89;;;21.39;39.11
80248;BME280;69560;52.206;21.018;2023-06-10T03:55:52;100247.80;;;21.37;39.12
80248;BME280;69560;52.206;21.018;2023-06-10T03:58:19;100246.64;;;21.35;39.24
80248;BME280;69560;52.206;21.018;2023-06-10T04:00:46;100245.76;;;21.35;39.31
80248;BME280;69560;52.206;21.018;2023-06-10T04:03:16;100249.96;;;21.34;39.40
80248;BME280;69560;52.206;21.018;2023-06-10T04:05:43;100247.70;;;21.35;39.52
80248;BME280;69560;52.206;21.018;2023-06-10T04:08:14;100250.41;;;21.36;39.69
80248;BME280;69560;52.206;21.018;2023-06-10T04:10:43;100251.02;;;21.37;39.66
80248;BME280;69560;52.206;21.018;2023-06-10T04:13:17;100255.91;;;21.39;39.58
80248;BME280;69560;52.206;21.018;2023-06-10T04:15:47;100257.31;;;21.40;39.71
80248;BME280;69560;52.206;21.018;2023-06-10T04:18:14;100256.28;;;21.42;39.79
80248;BME280;69560;52.206;21.018;2023-06-10T04:20:42;100260.98;;;21.45;39.78
80248;BME280;69560;52.206;21.018;2023-06-10T04:23:13;100259.08;;;21.47;39.76
80248;BME280;69560;52.206;21.018;2023-06-10T04:25:40;100257.02;;;21.49;39.88
80248;BME280;69560;52.206;21.018;2023-06-10T04:28:07;100254.55;;;21.51;39.89
80248;BME280;69560;52.206;21.018;2023-06-10T04:30:45;100255.88;;;21.53;39.87
80248;BME280;69560;52.206;21.018;2023-06-10T04:33:13;100254.80;;;21.53;39.81
80248;BME280;69560;52.206;21.018;2023-06-10T04:35:44;100256.29;;;21.55;39.80
80248;BME280;69560;52.206;21.018;2023-06-10T04:38:14;100253.09;;;21.57;39.79
80248;BME280;69560;52.206;21.018;2023-06-10T04:40:42;100256.36;;;21.59;39.84
80248;BME280;69560;52.206;21.018;2023-06-10T04:43:10;100259.70;;;21.61;39.98
80248;BME280;69560;52.206;21.018;2023-06-10T04:45:37;100258.17;;;21.64;39.90
80248;BME280;69560;52.206;21.018;2023-06-10T04:48:04;100261.21;;;21.68;39.96
80248;BME280;69560;52.206;21.018;2023-06-10T04:50:31;100265.31;;;21.72;39.99
80248;BME280;69560;52.206;21.018;2023-06-10T04:52:59;100269.27;;;21.75;40.11
80248;BME280;69560;52.206;21.018;2023-06-10T04:55:26;100266.31;;;21.76;40.06
80248;BME280;69560;52.206;21.018;2023-06-10T04:57:53;100268.73;;;21.77;40.08
80248;BME280;69560;52.206;21.018;2023-06-10T05:00:20;100271.20;;;21.78;39.99
80248;BME280;69560;52.206;21.018;2023-06-10T05:02:47;100270.98;;;21.80;40.10
80248;BME280;69560;52.206;21.018;2023-06-10T05:05:18;100271.45;;;21.82;39.86
80248;BME280;69560;52.206;21.018;2023-06-10T05:07:45;100267.48;;;21.82;40.10
80248;BME280;69560;52.206;21.018;2023-06-10T05:10:12;100271.19;;;21.86;40.21
80248;BME280;69560;52.206;21.018;2023-06-10T05:12:40;100274.50;;;21.88;40.22
80248;BME280;69560;52.206;21.018;2023-06-10T05:15:08;100274.95;;;21.93;40.35
80248;BME280;69560;52.206;21.018;2023-06-10T05:17:35;100276.73;;;21.96;40.27
80248;BME280;69560;52.206;21.018;2023-06-10T05:20:02;100279.70;;;21.99;40.24
80248;BME280;69560;52.206;21.018;2023-06-10T05:22:29;100280.72;;;22.03;40.29
80248;BME280;69560;52.206;21.018;2023-06-10T05:24:56;100277.45;;;22.05;40.06
80248;BME280;69560;52.206;21.018;2023-06-10T05:27:24;100272.72;;;22.07;40.18
80248;BME280;69560;52.206;21.018;2023-06-10T05:29:51;100274.98;;;22.09;40.20
80248;BME280;69560;52.206;21.018;2023-06-10T05:32:18;100273.39;;;22.11;40.18
80248;BME280;69560;52.206;21.018;2023-06-10T05:34:46;100274.89;;;22.15;40.07
80248;BME280;69560;52.206;21.018;2023-06-10T05:37:14;100277.84;;;22.20;40.19
80248;BME280;69560;52.206;21.018;2023-06-10T05:39:42;100279.94;;;22.25;40.17
80248;BME280;69560;52.206;21.018;2023-06-10T05:42:08;100273.31;;;22.31;40.28
80248;BME280;69560;52.206;21.018;2023-06-10T05:44:35;100271.58;;;22.36;40.03
80248;BME280;69560;52.206;21.018;2023-06-10T05:47:02;100273.47;;;22.40;40.06
80248;BME280;69560;52.206;21.018;2023-06-10T05:49:29;100274.14;;;22.45;40.09
80248;BME280;69560;52.206;21.018;2023-06-10T05:51:55;100273.23;;;22.49;39.92
80248;BME280;69560;52.206;21.018;2023-06-10T05:54:30;100276.52;;;22.50;39.82
80248;BME280;69560;52.206;21.018;2023-06-10T05:57:00;100276.14;;;22.51;39.98
80248;BME280;69560;52.206;21.018;2023-06-10T05:59:30;100275.86;;;22.53;39.92
80248;BME280;69560;52.206;21.018;2023-06-10T06:01:56;100278.11;;;22.55;39.96
80248;BME280;69560;52.206;21.018;2023-06-10T06:04:23;100281.02;;;22.60;40.06
80248;BME280;69560;52.206;21.018;2023-06-10T06:06:53;100285.37;;;22.65;40.05
80248;BME280;69560;52.206;21.018;2023-06-10T06:09:23;100289.51;;;22.70;39.99
80248;BME280;69560;52.206;21.018;2023-06-10T06:11:50;100286.30;;;22.75;39.98
80248;BME280;69560;52.206;21.018;2023-06-10T06:14:17;100289.52;;;22.80;40.01
80248;BME280;69560;52.206;21.018;2023-06-10T06:16:49;100287.09;;;22.86;39.93
80248;BME280;69560;52.206;21.018;2023-06-10T06:19:21;100286.11;;;22.92;39.94
80248;BME280;69560;52.206;21.018;2023-06-10T06:21:51;100285.83;;;22.98;39.98
80248;BME280;69560;52.206;21.018;2023-06-10T06:24:22;100284.06;;;23.03;39.77
80248;BME280;69560;52.206;21.018;2023-06-10T06:26:56;100284.32;;;23.10;39.83
80248;BME280;69560;52.206;21.018;2023-06-10T06:29:22;100286.48;;;23.19;39.86
80248;BME280;69560;52.206;21.018;2023-06-10T06:31:49;100284.08;;;23.26;39.87
80248;BME280;69560;52.206;21.018;2023-06-10T06:34:18;100287.05;;;23.32;39.74
80248;BME280;69560;52.206;21.018;2023-06-10T06:36:48;100282.20;;;23.40;39.73
80248;BME280;69560;52.206;21.018;2023-06-10T06:39:16;100285.65;;;23.48;39.68
80248;BME280;69560;52.206;21.018;2023-06-10T06:41:43;100289.81;;;23.54;39.68
80248;BME280;69560;52.206;21.018;2023-06-10T06:44:10;100288.04;;;23.61;39.66
80248;BME280;69560;52.206;21.018;2023-06-10T06:46:36;100289.19;;;23.68;39.54
80248;BME280;69560;52.206;21.018;2023-06-10T06:49:13;100288.80;;;23.75;39.52
80248;BME280;69560;52.206;21.018;2023-06-10T06:51:39;100287.77;;;23.81;39.42
80248;BME280;69560;52.206;21.018;2023-06-10T06:54:06;100289.54;;;23.88;39.47
80248;BME280;69560;52.206;21.018;2023-06-10T06:56:36;100292.33;;;23.97;39.31
80248;BME280;69560;52.206;21.018;2023-06-10T06:59:02;100291.60;;;24.04;39.23
80248;BME280;69560;52.206;21.018;2023-06-10T07:01:33;100292.22;;;24.12;39.11
80248;BME280;69560;52.206;21.018;2023-06-10T07:04:01;100295.21;;;24.21;39.10
80248;BME280;69560;52.206;21.018;2023-06-10T07:06:27;100299.73;;;24.29;39.04
80248;BME280;69560;52.206;21.018;2023-06-10T07:09:03;100302.59;;;24.37;39.01
80248;BME280;69560;52.206;21.018;2023-06-10T07:11:31;100302.95;;;24.46;39.07
80248;BME280;69560;52.206;21.018;2023-06-10T07:13:57;100302.17;;;24.55;38.87
80248;BME280;69560;52.206;21.018;2023-06-10T07:16:27;100302.45;;;24.62;38.75
80248;BME280;69560;52.206;21.018;2023-06-10T07:18:53;100303.12;;;24.70;38.91
80248;BME280;69560;52.206;21.018;2023-06-10T07:21:29;100302.63;;;24.80;38.67
80248;BME280;69560;52.206;21.018;2023-06-10T07:24:06;100305.31;;;24.88;38.62
80248;BME280;69560;52.206;21.018;2023-06-10T07:26:33;100301.66;;;24.95;38.40
80248;BME280;69560;52.206;21.018;2023-06-10T07:29:00;100301.60;;;25.02;38.28
80248;BME280;69560;52.206;21.018;2023-06-10T07:31:27;100302.28;;;25.12;38.33
80248;BME280;69560;52.206;21.018;2023-06-10T07:33:54;100304.47;;;25.20;38.03
80248;BME280;69560;52.206;21.018;2023-06-10T07:36:20;100301.27;;;25.27;38.03
80248;BME280;69560;52.206;21.018;2023-06-10T07:38:48;100307.23;;;25.36;37.99
80248;BME280;69560;52.206;21.018;2023-06-10T07:41:15;100305.02;;;25.45;37.58
80248;BME280;69560;52.206;21.018;2023-06-10T07:43:47;100310.33;;;25.54;37.64
80248;BME280;69560;52.206;21.018;2023-06-10T07:46:14;100311.18;;;25.63;37.72
80248;BME280;69560;52.206;21.018;2023-06-10T07:48:44;100313.73;;;25.70;37.74
80248;BME280;69560;52.206;21.018;2023-06-10T07:51:10;100316.17;;;25.77;37.29
80248;BME280;69560;52.206;21.018;2023-06-10T07:53:37;100312.52;;;25.85;37.40
80248;BME280;69560;52.206;21.018;2023-06-10T07:56:09;100318.29;;;25.93;37.22
80248;BME280;69560;52.206;21.018;2023-06-10T07:58:36;100317.73;;;25.98;37.05
80248;BME280;69560;52.206;21.018;2023-06-10T08:01:05;100323.40;;;26.04;36.87
80248;BME280;69560;52.206;21.018;2023-06-10T08:03:35;100322.20;;;26.10;36.63
80248;BME280;69560;52.206;21.018;2023-06-10T08:06:02;100319.27;;;26.16;36.40
80248;BME280;69560;52.206;21.018;2023-06-10T08:08:31;100321.86;;;26.21;36.47
80248;BME280;69560;52.206;21.018;2023-06-10T08:11:34;100327.19;;;26.28;36.31
80248;BME280;69560;52.206;21.018;2023-06-10T08:14:02;100322.58;;;26.37;36.43
80248;BME280;69560;52.206;21.018;2023-06-10T08:17:05;100319.05;;;26.43;36.24
80248;BME280;69560;52.206;21.018;2023-06-10T08:19:57;100323.69;;;26.51;35.88
80248;BME280;69560;52.206;21.018;2023-06-10T08:22:27;100322.48;;;26.60;35.97
80248;BME280;69560;52.206;21.018;2023-06-10T08:25:08;100323.46;;;26.68;36.07
80248;BME280;69560;52.206;21.018;2023-06-10T08:27:46;100327.14;;;26.75;35.79
80248;BME280;69560;52.206;21.018;2023-06-10T08:30:19;100318.52;;;26.79;35.78
80248;BME280;69560;52.206;21.018;2023-06-10T08:32:51;100325.59;;;26.82;35.46
80248;BME280;69560;52.206;21.018;2023-06-10T08:35:23;100321.12;;;26.85;35.41
80248;BME280;69560;52.206;21.018;2023-06-10T08:37:50;100322.59;;;26.87;35.34
80248;BME280;69560;52.206;21.018;2023-06-10T08:40:21;100326.18;;;26.87;34.93
80248;BME280;69560;52.206;21.018;2023-06-10T08:45:31;100322.19;;;26.92;34.48
80248;BME280;69560;52.206;21.018;2023-06-10T08:48:08;100323.23;;;26.96;34.46
80248;BME280;69560;52.206;21.018;2023-06-10T08:50:39;100324.79;;;27.02;34.51
80248;BME280;69560;52.206;21.018;2023-06-10T08:53:07;100329.07;;;27.10;34.37
80248;BME280;69560;52.206;21.018;2023-06-10T08:55:38;100327.63;;;27.18;34.18
80248;BME280;69560;52.206;21.018;2023-06-10T08:58:06;100325.90;;;27.25;34.04
80248;BME280;69560;52.206;21.018;2023-06-10T09:00:36;100329.05;;;27.32;33.97
80248;BME280;69560;52.206;21.018;2023-06-10T09:03:03;100331.05;;;27.40;33.71
80248;BME280;69560;52.206;21.018;2023-06-10T09:05:34;100335.42;;;27.42;33.47
80248;BME280;69560;52.206;21.018;2023-06-10T09:08:08;100335.89;;;27.45;33.03
80248;BME280;69560;52.206;21.018;2023-06-10T09:10:35;100336.52;;;27.49;32.91
80248;BME280;69560;52.206;21.018;2023-06-10T09:13:02;100331.39;;;27.52;32.70
80248;BME280;69560;52.206;21.018;2023-06-10T09:15:29;100333.98;;;27.56;32.39
80248;BME280;69560;52.206;21.018;2023-06-10T09:17:59;100333.83;;;27.58;32.17
80248;BME280;69560;52.206;21.018;2023-06-10T09:20:27;100331.77;;;27.61;32.17
80248;BME280;69560;52.206;21.018;2023-06-10T09:22:53;100335.92;;;27.66;32.33
80248;BME280;69560;52.206;21.018;2023-06-10T09:25:34;100338.55;;;27.70;32.41
80248;BME280;69560;52.206;21.018;2023-06-10T09:28:16;100336.04;;;27.75;32.61
80248;BME280;69560;52.206;21.018;2023-06-10T09:30:47;100342.34;;;27.80;32.59
80248;BME280;69560;52.206;21.018;2023-06-10T09:33:23;100344.90;;;27.86;32.47
80248;BME280;69560;52.206;21.018;2023-06-10T09:36:05;100345.01;;;27.92;32.56
80248;BME280;69560;52.206;21.018;2023-06-10T09:38:33;100344.31;;;28.00;32.52
80248;BME280;69560;52.206;21.018;2023-06-10T09:41:01;100348.91;;;28.05;32.15
80248;BME280;69560;52.206;21.018;2023-06-10T09:43:43;100350.96;;;28.10;31.68
80248;BME280;69560;52.206;21.018;2023-06-10T09:46:33;100349.16;;;28.15;31.66
80248;BME280;69560;52.206;21.018;2023-06-10T09:49:03;100350.84;;;28.20;31.72
80248;BME280;69560;52.206;21.018;2023-06-10T09:51:30;100348.23;;;28.25;31.42
80248;BME280;69560;52.206;21.018;2023-06-10T09:53:57;100348.59;;;28.26;30.64
80248;BME280;69560;52.206;21.018;2023-06-10T09:56:37;100350.92;;;28.22;30.10
80248;BME280;69560;52.206;21.018;2023-06-10T09:59:11;100350.19;;;28.17;29.87
80248;BME280;69560;52.206;21.018;2023-06-10T10:01:39;100350.91;;;28.17;29.76
80248;BME280;69560;52.206;21.018;2023-06-10T10:04:08;100349.73;;;28.18;29.97
80248;BME280;69560;52.206;21.018;2023-06-10T10:06:40;100347.20;;;28.20;30.24
80248;BME280;69560;52.206;21.018;2023-06-10T10:09:17;100346.90;;;28.22;30.23
80248;BME280;69560;52.206;21.018;2023-06-10T10:11:48;100340.95;;;28.25;30.17
80248;BME280;69560;52.206;21.018;2023-06-10T10:14:31;100333.56;;;28.30;29.98
80248;BME280;69560;52.206;21.018;2023-06-10T10:17:15;100342.02;;;28.35;29.72
80248;BME280;69560;52.206;21.018;2023-06-10T10:20:04;100337.50;;;28.42;29.47
80248;BME280;69560;52.206;21.018;2023-06-10T10:22:39;100339.39;;;28.49;29.44
80248;BME280;69560;52.206;21.018;2023-06-10T10:25:38;100330.96;;;28.56;29.40
80248;BME280;69560;52.206;21.018;2023-06-10T10:28:21;100328.39;;;28.65;29.29
80248;BME280;69560;52.206;21.018;2023-06-10T10:31:08;100330.12;;;28.73;29.29
80248;BME280;69560;52.206;21.018;2023-06-10T10:34:04;100328.45;;;28.78;29.20
80248;BME280;69560;52.206;21.018;2023-06-10T10:39:15;100331.70;;;28.88;28.68
80248;BME280;69560;52.206;21.018;2023-06-10T10:41:54;100332.34;;;28.92;28.66
80248;BME280;69560;52.206;21.018;2023-06-10T10:44:49;100328.40;;;28.98;28.24
80248;BME280;69560;52.206;21.018;2023-06-10T10:47:19;100331.75;;;29.06;28.19
80248;BME280;69560;52.206;21.018;2023-06-10T10:49:52;100333.84;;;29.14;27.85
80248;BME280;69560;52.206;21.018;2023-06-10T10:53:06;100334.48;;;29.20;27.55
80248;BME280;69560;52.206;21.018;2023-06-10T10:55:38;100337.79;;;29.25;27.10
80248;BME280;69560;52.206;21.018;2023-06-10T10:58:08;100339.56;;;29.29;26.74
80248;BME280;69560;52.206;21.018;2023-06-10T11:00:45;100339.36;;;29.32;26.63
80248;BME280;69560;52.206;21.018;2023-06-10T11:03:41;100336.95;;;29.37;26.58
80248;BME280;69560;52.206;21.018;2023-06-10T11:06:15;100335.35;;;29.44;26.57
80248;BME280;69560;52.206;21.018;2023-06-10T11:11:28;100330.20;;;29.55;26.27
80248;BME280;69560;52.206;21.018;2023-06-10T11:14:28;100323.77;;;29.61;26.21
80248;BME280;69560;52.206;21.018;2023-06-10T11:16:59;100325.65;;;29.65;26.32
80248;BME280;69560;52.206;21.018;2023-06-10T11:19:36;100323.73;;;29.68;26.39
80248;BME280;69560;52.206;21.018;2023-06-10T11:22:06;100324.04;;;29.73;26.23
80248;BME280;69560;52.206;21.018;2023-06-10T11:24:33;100320.67;;;29.77;26.23
80248;BME280;69560;52.206;21.018;2023-06-10T11:27:15;100313.75;;;29.80;26.03
80248;BME280;69560;52.206;21.018;2023-06-10T11:30:17;100314.45;;;29.85;25.93
80248;BME280;69560;52.206;21.018;2023-06-10T11:35:42;100319.73;;;29.99;25.49
80248;BME280;69560;52.206;21.018;2023-06-10T11:38:15;100321.38;;;30.02;25.46
80248;BME280;69560;52.206;21.018;2023-06-10T11:40:57;100322.65;;;30.02;25.20
80248;BME280;69560;52.206;21.018;2023-06-10T11:43:52;100314.78;;;30.02;24.92
80248;BME280;69560;52.206;21.018;2023-06-10T11:46:33;100319.89;;;30.02;24.87
80248;BME280;69560;52.206;21.018;2023-06-10T11:49:20;100322.69;;;30.01;24.86
80248;BME280;69560;52.206;21.018;2023-06-10T11:51:52;100312.38;;;30.00;24.85
80248;BME280;69560;52.206;21.018;2023-06-10T11:54:19;100316.64;;;30.00;24.86
80248;BME280;69560;52.206;21.018;2023-06-10T11:56:57;100313.06;;;30.01;25.33
80248;BME280;69560;52.206;21.018;2023-06-10T11:59:31;100301.98;;;30.01;25.07
80248;BME280;69560;52.206;21.018;2023-06-10T12:02:15;100307.66;;;29.99;25.33
80248;BME280;69560;52.206;21.018;2023-06-10T12:04:43;100302.34;;;29.97;25.46
80248;BME280;69560;52.206;21.018;2023-06-10T12:07:19;100308.21;;;29.96;25.46
80248;BME280;69560;52.206;21.018;2023-06-10T12:10:02;100305.34;;;29.95;25.46
80248;BME280;69560;52.206;21.018;2023-06-10T12:12:35;100305.58;;;29.90;25.30
80248;BME280;69560;52.206;21.018;2023-06-10T12:15:08;100302.52;;;29.86;25.02
80248;BME280;69560;52.206;21.018;2023-06-10T12:17:37;100297.79;;;29.83;24.81
80248;BME280;69560;52.206;21.018;2023-06-10T12:20:29;100302.62;;;29.79;25.10
80248;BME280;69560;52.206;21.018;2023-06-10T12:23:09;100298.60;;;29.75;25.29
80248;BME280;69560;52.206;21.018;2023-06-10T12:26:09;100296.88;;;29.71;25.39
80248;BME280;69560;52.206;21.018;2023-06-10T12:29:17;100295.25;;;29.65;25.50
80248;BME280;69560;52.206;21.018;2023-06-10T12:31:59;100290.27;;;29.57;25.71
80248;BME280;69560;52.206;21.018;2023-06-10T12:34:39;100287.69;;;29.52;25.85
80248;BME280;69560;52.206;21.018;2023-06-10T12:37:11;100287.42;;;29.45;25.81
80248;BME280;69560;52.206;21.018;2023-06-10T12:39:53;100282.66;;;29.40;25.85
80248;BME280;69560;52.206;21.018;2023-06-10T12:42:35;100289.07;;;29.35;26.17
80248;BME280;69560;52.206;21.018;2023-06-10T12:45:11;100280.01;;;29.30;26.48
80248;BME280;69560;52.206;21.018;2023-06-10T12:47:44;100280.56;;;29.29;26.57
80248;BME280;69560;52.206;21.018;2023-06-10T12:50:26;100282.05;;;29.27;26.50
80248;BME280;69560;52.206;21.018;2023-06-10T12:53:02;100280.98;;;29.23;26.35
80248;BME280;69560;52.206;21.018;2023-06-10T12:55:53;100279.35;;;29.21;26.43
80248;BME280;69560;52.206;21.018;2023-06-10T12:58:34;100273.29;;;29.19;26.60
80248;BME280;69560;52.206;21.018;2023-06-10T13:01:09;100265.69;;;29.13;26.62
80248;BME280;69560;52.206;21.018;2023-06-10T13:03:48;100267.65;;;29.07;26.86
80248;BME280;69560;52.206;21.018;2023-06-10T13:06:18;100267.14;;;29.04;27.04
80248;BME280;69560;52.206;21.018;2023-06-10T13:09:09;100267.70;;;29.00;27.16
80248;BME280;69560;52.206;21.018;2023-06-10T13:11:42;100269.59;;;28.98;27.22
80248;BME280;69560;52.206;21.018;2023-06-10T13:14:21;100266.91;;;28.97;27.13
80248;BME280;69560;52.206;21.018;2023-06-10T13:20:05;100256.16;;;28.91;26.88
80248;BME280;69560;52.206;21.018;2023-06-10T13:22:38;100260.85;;;28.89;26.94